User Preferences

Timezone
Units
Lat/Lon format
Defaults

Geo and time bounds

073 - SCRIPPS PIER, LA JOLLA CA   Notice:02/14/2024 Cleaned sensor Data set:
720 records
Date
(PDT)
Hs
(ft)
Tp
(s)
Ta
(s)
Depth
(ft)
Wind sp
(kt)
Wind dir
(deg)
2023-11-30 16:45 3.02 11.13 6.84 14.83 4.9 250
2023-11-30 15:45 2.76 8.00 7.21 15.75 4.2 236
2023-11-30 14:45 2.69 10.67 7.75 16.93 1.6 330
2023-11-30 13:45 2.76 11.13 8.02 18.27 3.0 340
2023-11-30 12:45 2.66 11.13 8.29 19.39 2.4 349
2023-11-30 11:45 2.49 11.13 8.20 20.21 2.9 326
2023-11-30 10:45 2.62 11.13 8.99 20.54 2.4 190
2023-11-30 09:45 2.79 11.13 9.32 20.41 5.2 136
2023-11-30 08:45 2.59 9.48 8.97 19.85 5.0 135
2023-11-30 07:45 2.20 10.24 9.15 19.13 5.0 123
2023-11-30 06:45 2.46 11.64 8.55 18.41 5.9 100
2023-11-30 05:45 2.49 11.13 8.60 17.85 6.0 103
2023-11-30 04:45 2.76 11.64 8.88 17.59 6.4 98
2023-11-30 03:45 2.92 10.67 8.92 17.62 3.4 99
2023-11-30 02:45 2.79 11.13 8.78 17.78 2.0 20
2023-11-30 01:45 2.82 11.64 8.85 18.11 3.1 328
2023-11-30 00:45 3.28 11.64 8.97 18.27 2.1 241
2023-11-29 23:45 3.44 11.64 8.97 18.21 1.7 151
2023-11-29 22:45 3.31 11.64 8.62 17.81 5.2 262
2023-11-29 21:45 3.02 12.19 8.23 16.99 5.2 257
2023-11-29 20:45 2.69 11.64 8.51 16.01 4.6 301
2023-11-29 19:45 2.82 11.64 8.78 15.06 5.9 291
2023-11-29 18:45 2.72 11.64 8.46 14.30 4.4 274
2023-11-29 17:45 2.40 12.19 7.83 13.94 3.9 270
2023-11-29 16:45 2.46 12.19 8.21 14.11 4.2 261
2023-11-29 15:45 2.13 12.80 8.09 14.80 5.4 231
2023-11-29 14:45 2.69 12.19 8.61 15.94 5.4 234
2023-11-29 13:45 2.46 12.19 9.50 17.39 6.4 224
2023-11-29 12:45 2.59 12.19 9.70 18.96 5.2 229
2023-11-29 11:45 2.59 12.80 9.68 20.14 6.4 236
2023-11-29 10:45 2.10 12.19 9.70 20.87 3.1 235
2023-11-29 09:45 2.10 12.80 9.84 21.06 6.5 112
2023-11-29 08:45 1.97 13.47 10.16 20.64 8.0 101
2023-11-29 07:45 1.77 14.22 9.74 19.85 7.4 94
2023-11-29 06:45 1.77 13.47 8.99 18.96 7.7 102
2023-11-29 05:45 1.77 13.47 8.19 18.14 4.6 101
2023-11-29 04:45 1.77 11.13 7.99 17.55 3.8 105
2023-11-29 03:45 1.71 11.13 7.98 17.39 4.9 103
2023-11-29 02:45 1.90 11.64 8.43 17.55 5.8 101
2023-11-29 01:45 1.94 12.19 8.42 17.85 6.2 101
2023-11-29 00:45 1.77 11.64 9.82 18.24 7.0 101
2023-11-28 23:45 2.33 12.19 10.66 18.47 5.0 104
2023-11-28 22:45 2.20 13.47 10.72 18.31 0.4 115
2023-11-28 21:45 2.20 12.19 10.67 17.78 2.9 107
2023-11-28 20:45 1.87 11.64 10.50 16.86 0.6 119
2023-11-28 19:45 2.03 12.80 10.47 15.78 0.3 86
2023-11-28 18:45 2.20 13.47 10.38 14.73 0.3 63
2023-11-28 17:45 2.13 12.19 9.73 13.98 2.4 3
2023-11-28 16:45 2.30 12.80 9.48 13.71 4.8 339
2023-11-28 15:45 2.26 12.80 9.83 14.07 4.1 320
2023-11-28 14:45 2.03 12.80 10.63 15.03 4.3 333
2023-11-28 13:45 2.00 12.19 11.01 16.47 3.7 325
2023-11-28 12:45 2.33 12.80 10.64 18.14 2.3 357
2023-11-28 11:45 2.10 13.47 11.00 19.65 1.6 339
2023-11-28 10:45 2.07 14.22 10.83 20.83 1.4 293
2023-11-28 09:45 2.30 14.22 11.25 21.36 2.0 258
2023-11-28 08:45 2.20 12.19 10.68 21.19 1.1 169
2023-11-28 07:45 2.03 14.22 11.03 20.54 1.0 100
2023-11-28 06:45 2.07 12.80 10.88 19.59 0.6 96
2023-11-28 05:45 2.10 13.47 10.95 18.54 1.6 100
2023-11-28 04:45 2.17 12.19 10.59 17.72 2.5 113
2023-11-28 03:45 2.23 15.06 11.11 17.22 1.8 99
2023-11-28 02:45 2.07 12.19 10.48 17.22 5.2 93
2023-11-28 01:45 1.84 13.47 11.22 17.49 2.3 102
2023-11-28 00:45 2.10 13.47 10.35 17.98 1.0 95
2023-11-27 23:45 2.13 13.47 10.83 18.44 0.7 89
2023-11-27 22:45 2.30 12.80 11.20 18.64 4.8 103
2023-11-27 21:45 2.26 12.80 11.35 18.47 3.8 102
2023-11-27 20:45 2.43 13.47 10.91 17.75 1.7 104
2023-11-27 19:45 2.49 14.22 10.44 16.70 0.5 134
2023-11-27 18:45 2.33 13.47 10.47 15.49 0.6 66
2023-11-27 17:45 2.33 13.47 9.43 14.40 4.7 351
2023-11-27 16:45 2.20 14.22 9.27 13.75 5.2 349
2023-11-27 15:45 2.30 14.22 9.92 13.65 2.0 358
2023-11-27 14:45 2.10 11.64 10.02 14.24 2.7 358
2023-11-27 13:45 2.00 13.47 10.40 15.42 4.2 344
2023-11-27 12:45 2.13 14.22 10.93 16.99 1.5 284
2023-11-27 11:45 2.13 12.19 10.76 18.77 0.3 276
2023-11-27 10:45 2.13 12.19 11.28 20.24 1.7 2
2023-11-27 09:45 2.20 12.80 11.12 21.19 1.5 26
2023-11-27 08:45 2.46 12.80 10.86 21.46 0.3 149
2023-11-27 07:45 2.56 12.80 11.19 21.06 1.8 153
2023-11-27 06:45 2.59 12.80 11.27 20.21 6.5 87
2023-11-27 05:45 2.49 12.80 11.19 19.06 6.8 95
2023-11-27 04:45 2.20 12.80 11.00 18.01 0.4 136
2023-11-27 03:45 2.53 13.47 11.13 17.19 2.1 155
2023-11-27 02:45 2.49 13.47 10.52 16.80 1.9 115
2023-11-27 01:45 2.23 14.22 9.59 16.93 1.9 184
2023-11-27 00:45 1.94 14.22 10.37 17.39 0.6 121
2023-11-26 23:45 2.17 12.80 10.79 18.04 0.3 126
2023-11-26 22:45 2.36 14.22 11.29 18.57 0.8 170
2023-11-26 21:45 2.26 12.80 11.22 18.77 4.4 103
2023-11-26 20:45 2.49 13.47 11.61 18.47 2.1 97
2023-11-26 19:45 2.17 15.06 10.46 17.68 1.2 174
2023-11-26 18:45 2.56 16.00 10.49 16.54 2.4 31
2023-11-26 17:45 2.17 14.22 9.81 15.29 7.6 16
2023-11-26 16:45 2.07 15.06 9.39 14.27 6.1 5
2023-11-26 15:45 2.20 15.06 9.58 13.71 6.5 1
2023-11-26 14:45 2.03 15.06 9.44 13.78 5.1 350
2023-11-26 13:45 1.87 16.00 9.16 14.53 5.4 359
2023-11-26 12:45 1.84 15.06 9.49 15.91 2.1 360
2023-11-26 11:45 2.00 16.00 10.15 17.65 1.3 318
2023-11-26 10:45 1.94 12.19 9.74 19.36 0.8 19
2023-11-26 09:45 2.10 12.80 10.01 20.70 1.0 184
2023-11-26 08:45 2.13 18.29 9.58 21.39 0.9 149
2023-11-26 07:45 2.03 16.00 9.33 21.39 0.7 139
2023-11-26 06:45 1.94 12.80 8.64 20.73 0.4 156
2023-11-26 05:45 1.74 16.00 8.58 19.62 1.0 138
2023-11-26 04:45 1.90 17.07 8.16 18.44 2.0 160
2023-11-26 03:45 1.94 17.07 8.02 17.36 2.2 158
2023-11-26 02:45 1.84 9.48 7.27 16.67 1.5 122
2023-11-26 01:45 1.84 6.92 7.21 16.50 1.8 157
2023-11-26 00:45 1.87 7.31 6.84 16.80 4.5 94
2023-11-25 23:45 1.94 7.31 6.65 17.42 6.8 88
2023-11-25 22:45 2.03 7.53 6.59 18.14 6.4 92
2023-11-25 21:45 1.94 18.29 6.64 18.73 4.6 92
2023-11-25 20:45 1.84 8.53 6.81 18.96 1.1 129
2023-11-25 19:45 1.90 18.29 6.87 18.57 4.7 28
2023-11-25 18:45 1.84 7.76 6.90 17.68 7.8 32
2023-11-25 17:45 1.90 8.53 7.13 16.47 10.2 8
2023-11-25 16:45 2.07 7.53 6.69 15.22 10.7 354
2023-11-25 15:45 1.94 9.48 6.97 14.27 9.2 335
2023-11-25 14:45 1.97 10.67 6.92 13.91 6.7 324
2023-11-25 13:45 1.87 9.48 6.98 14.17 5.4 297
2023-11-25 12:45 1.94 8.83 6.91 15.12 3.5 282
2023-11-25 11:45 1.87 7.76 6.56 16.60 3.9 287
2023-11-25 10:45 2.07 10.24 6.57 18.27 4.4 280
2023-11-25 09:45 2.17 9.14 6.57 19.82 1.1 153
2023-11-25 08:45 2.13 7.31 6.70 20.87 4.3 179
2023-11-25 07:45 2.17 8.26 7.09 21.26 6.3 94
2023-11-25 06:45 2.26 10.24 7.09 21.00 8.2 94
2023-11-25 05:45 2.49 9.48 6.99 20.05 8.1 95
2023-11-25 04:45 2.43 10.67 6.92 18.83 9.3 97
2023-11-25 03:45 2.56 8.83 6.84 17.59 10.5 99
2023-11-25 02:45 2.53 7.53 7.05 16.57 8.4 99
2023-11-25 01:45 2.30 9.14 6.63 16.04 9.1 97
2023-11-25 00:45 2.49 8.83 6.68 16.04 8.9 99
2023-11-24 23:45 2.56 7.76 6.86 16.54 8.6 102
2023-11-24 22:45 2.79 8.26 7.15 17.36 6.8 102
2023-11-24 21:45 2.79 10.24 7.29 18.21 2.6 104
2023-11-24 20:45 3.15 8.83 7.25 18.80 1.1 116
2023-11-24 19:45 3.28 9.85 7.59 18.93 1.9 128
2023-11-24 18:45 3.44 10.24 7.66 18.50 3.0 153
2023-11-24 17:45 3.71 8.00 7.18 17.65 3.9 223
2023-11-24 16:45 3.87 9.14 7.00 16.40 4.5 236
2023-11-24 15:45 4.04 10.67 6.78 15.32 7.0 225
2023-11-24 14:45 3.67 8.53 6.23 14.53 9.3 220
2023-11-24 13:45 3.48 9.48 6.37 14.37 8.9 215
2023-11-24 12:45 3.54 9.14 6.08 14.83 11.3 224
2023-11-24 11:45 3.54 10.24 5.94 15.88 11.9 227
2023-11-24 10:45 3.58 8.53 5.92 17.26 9.2 223
2023-11-24 09:45 3.41 7.53 6.15 18.70 7.6 228
2023-11-24 08:45 3.54 6.24 6.11 19.95 8.3 231
2023-11-24 07:45 3.48 6.56 6.11 20.73 8.9 238
2023-11-24 06:45 3.81 7.31 6.11 20.77 7.3 218
2023-11-24 05:45 3.74 7.31 6.25 20.24 8.2 206
2023-11-24 04:45 3.44 7.11 6.25 19.23 7.8 221
2023-11-24 03:45 2.82 7.11 6.01 17.95 9.5 226
2023-11-24 02:45 2.40 6.24 5.94 16.77 9.8 208
2023-11-24 01:45 2.36 11.64 6.00 15.88 7.2 177
2023-11-24 00:45 2.40 11.64 5.96 15.55 7.3 186
2023-11-23 23:45 2.33 10.24 5.66 15.78 9.0 180
2023-11-23 22:45 2.26 11.13 5.62 16.44 8.4 186
2023-11-23 21:45 2.33 11.13 5.94 17.32 9.7 167
2023-11-23 20:45 2.46 11.64 6.40 18.24 8.7 164
2023-11-23 19:45 2.69 11.13 6.57 18.80 6.0 170
2023-11-23 18:45 2.62 11.13 6.44 18.93 7.4 163
2023-11-23 17:45 2.79 12.19 6.16 18.50 7.0 169
2023-11-23 16:45 2.85 11.64 6.31 17.65 7.0 184
2023-11-23 15:45 2.56 11.13 5.92 16.60 10.3 209
2023-11-23 14:45 2.69 11.13 6.89 15.68 12.0 204
2023-11-23 13:45 2.23 12.19 7.15 15.09 14.4 210
2023-11-23 12:45 2.20 12.19 8.26 15.06 10.9 185
2023-11-23 11:45 1.94 11.13 8.52 15.55 11.0 170
2023-11-23 10:45 1.94 12.80 9.18 16.54 7.7 168
2023-11-23 09:45 1.67 12.80 8.59 17.78 6.5 142
2023-11-23 08:45 1.84 11.64 8.85 19.00 6.5 135
2023-11-23 07:45 1.57 12.19 8.52 19.91 6.0 132
2023-11-23 06:45 1.64 12.19 8.13 20.34 6.8 130
2023-11-23 05:45 1.41 12.19 8.52 20.14 6.0 141
2023-11-23 04:45 1.38 12.19 9.53 19.39 5.6 127
2023-11-23 03:45 1.31 12.19 9.02 18.24 5.7 111
2023-11-23 02:45 1.28 13.47 8.14 16.99 3.8 130
2023-11-23 01:45 1.31 12.80 8.79 15.91 1.2 151
2023-11-23 00:45 1.28 12.80 9.26 15.26 3.7 116
2023-11-22 23:45 1.02 12.80 8.44 15.09 2.8 121
2023-11-22 22:45 1.08 12.80 7.93 15.55 1.1 159
2023-11-22 21:45 1.15 13.47 8.71 16.37 0.0 185
2023-11-22 20:45 1.15 13.47 8.68 17.36 0.5 101
2023-11-22 19:45 1.25 13.47 8.74 18.24 3.2 23
2023-11-22 18:45 1.18 13.47 8.40 18.80 5.2 29
2023-11-22 17:45 1.12 14.22 7.97 18.93 7.8 20
2023-11-22 16:45 1.15 14.22 8.18 18.60 7.3 20
2023-11-22 15:45 1.21 14.22 8.09 17.88 5.8 14
2023-11-22 14:45 1.18 14.22 8.08 16.99 5.2 19
2023-11-22 13:45 1.12 9.14 7.49 16.27 3.4 359
2023-11-22 12:45 1.18 9.85 7.54 15.88 0.4 258
2023-11-22 11:45 1.15 10.67 7.42 15.94 0.1 43
2023-11-22 10:45 1.12 9.48 7.13 16.44 0.6 327
2023-11-22 09:45 1.02 8.83 6.95 17.26 1.3 21
2023-11-22 08:45 1.12 9.14 7.28 18.24 1.2 38
2023-11-22 07:45 1.35 9.14 7.01 19.09 1.6 119
2023-11-22 06:45 1.48 6.56 7.27 19.69 2.3 130
2023-11-22 05:45 1.67 6.92 7.51 19.78 0.2 163
2023-11-22 04:45 1.77 7.31 7.45 19.36 0.6 127
2023-11-22 03:45 1.77 10.24 7.70 18.54 0.6 99
2023-11-22 02:45 1.97 8.00 7.67 17.39 2.7 110
2023-11-22 01:45 1.90 9.48 7.74 16.21 1.7 93
2023-11-22 00:45 1.74 9.48 7.26 15.29 0.6 119
2023-11-21 23:45 1.90 9.48 7.08 14.83 0.5 79
2023-11-21 22:45 1.71 8.83 6.85 14.90 1.5 202
2023-11-21 21:45 1.77 9.48 6.84 15.45 5.9 97
2023-11-21 20:45 1.74 9.48 6.70 16.34 1.8 168
2023-11-21 19:45 1.87 9.85 7.08 17.39 1.2 41
2023-11-21 18:45 1.67 9.14 7.58 18.27 3.2 166
2023-11-21 17:45 1.84 9.85 7.79 18.86 0.5 28
2023-11-21 16:45 1.67 9.85 7.69 19.03 2.3 7
2023-11-21 15:45 1.84 9.48 8.01 18.80 2.7 360
2023-11-21 14:45 1.94 10.24 7.94 18.24 3.8 21
2023-11-21 13:45 1.90 10.24 7.88 17.62 3.4 20
2023-11-21 12:45 1.87 10.24 7.62 17.06 1.5 249
2023-11-21 11:45 2.03 10.24 7.51 16.80 0.4 201
2023-11-21 10:45 1.94 10.24 7.37 16.86 0.7 39
2023-11-21 09:45 2.10 10.67 7.36 17.26 4.8 22
2023-11-21 08:45 2.49 10.24 7.77 17.81 3.0 6
2023-11-21 07:45 2.59 10.67 7.41 18.47 2.1 130
2023-11-21 06:45 2.79 10.67 8.01 19.06 0.4 61
2023-11-21 05:45 3.08 8.26 7.94 19.29 0.6 154
2023-11-21 04:45 3.08 10.67 8.14 19.19 0.7 163
2023-11-21 03:45 3.15 10.24 7.94 18.67 1.9 149
2023-11-21 02:45 2.89 9.85 7.75 17.88 0.2 97
2023-11-21 01:45 2.95 10.24 7.82 16.80 1.2 196
2023-11-21 00:45 2.92 8.26 7.46 15.81 1.5 37
2023-11-20 23:45 2.99 9.48 7.55 15.03 0.7 190
2023-11-20 22:45 3.12 10.24 7.35 14.70 1.6 162
2023-11-20 21:45 3.05 9.48 7.04 14.86 1.4 267
2023-11-20 20:45 2.79 10.24 7.21 15.45 3.7 37
2023-11-20 19:45 3.02 9.48 6.95 16.37 2.4 110
2023-11-20 18:45 2.85 10.24 7.02 17.32 3.1 90
2023-11-20 17:45 3.18 10.24 7.43 18.21 5.7 92
2023-11-20 16:45 3.51 9.48 7.31 18.86 2.4 223
2023-11-20 15:45 3.35 7.31 7.22 19.23 5.4 225
2023-11-20 14:45 3.38 7.31 6.89 19.16 2.0 250
2023-11-20 13:45 3.64 10.24 7.00 18.83 2.1 242
2023-11-20 12:45 3.48 6.92 6.86 18.41 3.6 353
2023-11-20 11:45 3.25 9.85 6.70 17.98 2.3 329
2023-11-20 10:45 3.54 8.83 6.91 17.72 4.7 302
2023-11-20 09:45 3.58 8.83 6.83 17.62 1.1 224
2023-11-20 08:45 3.81 7.76 6.69 17.75 0.6 169
2023-11-20 07:45 4.27 6.74 6.56 18.04 2.1 161
2023-11-20 06:45 4.00 9.14 6.80 18.47 2.2 86
2023-11-20 05:45 4.23 8.53 6.61 18.77 2.7 153
2023-11-20 04:45 4.76 8.83 6.87 18.83 1.1 153
2023-11-20 03:45 5.05 9.14 6.85 18.67 5.6 97
2023-11-20 02:45 4.79 8.83 6.70 18.18 2.7 96
2023-11-20 01:45 4.89 8.83 6.69 17.39 0.7 134
2023-11-20 00:45 4.72 8.00 6.30 16.50 2.1 97
2023-11-19 23:45 4.46 7.76 6.17 15.65 1.5 126
2023-11-19 22:45 4.46 8.83 6.02 14.96 3.8 84
2023-11-19 21:45 4.30 8.00 5.64 14.73 2.7 68
2023-11-19 20:45 4.63 8.26 5.67 14.86 1.0 63
2023-11-19 19:45 4.49 7.76 5.88 15.39 2.4 38
2023-11-19 18:45 4.63 7.53 5.88 16.21 0.6 84
2023-11-19 17:45 4.40 8.00 6.08 17.16 2.8 305
2023-11-19 16:45 4.00 7.31 5.97 18.14 4.5 299
2023-11-19 15:45 3.97 7.76 6.32 18.93 5.4 267
2023-11-19 14:45 3.77 8.26 6.36 19.42 4.5 280
2023-11-19 13:45 3.71 6.92 6.27 19.59 3.9 294
2023-11-19 12:45 3.61 7.11 6.32 19.46 4.8 328
2023-11-19 11:45 3.48 8.26 6.38 19.13 4.5 296
2023-11-19 10:45 3.41 7.31 6.55 18.73 4.0 223
2023-11-19 09:45 3.22 8.26 6.75 18.37 3.1 191
2023-11-19 08:45 2.85 8.00 6.86 18.08 3.4 234
2023-11-19 07:45 2.82 8.26 6.89 17.98 1.4 109
2023-11-19 06:45 2.72 7.53 6.80 18.04 1.7 146
2023-11-19 05:45 2.59 7.31 6.76 18.24 4.2 106
2023-11-19 04:45 2.30 7.31 6.89 18.44 4.3 94
2023-11-19 03:45 2.03 8.00 7.16 18.50 5.2 108
2023-11-19 02:45 1.90 7.53 7.09 18.34 5.6 96
2023-11-19 01:45 1.94 7.53 7.30 17.95 1.8 117
2023-11-19 00:45 1.97 7.53 7.04 17.29 3.2 141
2023-11-18 23:45 1.84 8.00 7.08 16.37 3.5 144
2023-11-18 22:45 1.80 8.00 7.04 15.55 2.8 124
2023-11-18 21:45 1.97 7.53 6.75 14.96 1.5 159
2023-11-18 20:45 2.07 8.00 6.82 14.60 3.7 117
2023-11-18 19:45 2.30 8.53 6.49 14.70 1.6 139
2023-11-18 18:45 2.49 8.53 6.85 15.16 2.7 187
2023-11-18 17:45 2.76 8.53 6.89 15.98 5.8 225
2023-11-18 16:45 2.85 8.53 7.07 16.99 6.6 228
2023-11-18 15:45 2.89 8.53 7.37 18.04 7.6 234
2023-11-18 14:45 3.28 8.26 7.36 19.00 7.3 234
2023-11-18 13:45 3.12 8.53 7.40 19.69 7.8 242
2023-11-18 12:45 2.99 9.14 7.45 20.01 2.7 301
2023-11-18 11:45 2.62 7.11 7.49 20.05 3.1 344
2023-11-18 10:45 2.20 7.76 7.40 19.78 4.5 267
2023-11-18 09:45 2.03 8.00 7.36 19.29 3.2 143
2023-11-18 08:45 1.90 8.00 7.32 18.80 3.4 118
2023-11-18 07:45 1.67 7.53 7.17 18.27 7.6 106
2023-11-18 06:45 1.77 7.31 7.35 17.95 5.3 101
2023-11-18 05:45 1.64 8.53 7.22 17.88 2.7 111
2023-11-18 04:45 1.57 8.53 7.07 17.95 1.0 151
2023-11-18 03:45 1.51 8.83 7.17 18.18 2.2 124
2023-11-18 02:45 1.64 8.83 7.46 18.24 1.4 130
2023-11-18 01:45 1.74 8.83 7.43 18.18 1.0 171
2023-11-18 00:45 2.07 9.14 7.44 17.85 0.8 168
2023-11-17 23:45 2.10 7.53 7.18 17.22 0.1 172
2023-11-17 22:45 2.13 8.53 7.28 16.40 2.3 215
2023-11-17 21:45 2.07 8.53 6.88 15.62 2.4 148
2023-11-17 20:45 2.13 7.11 6.73 14.90 0.7 158
2023-11-17 19:45 2.17 8.26 6.96 14.50 1.7 59
2023-11-17 18:45 2.10 8.53 6.76 14.53 2.1 40
2023-11-17 17:45 2.17 8.26 7.05 14.93 1.9 291
2023-11-17 16:45 2.03 7.76 6.91 15.81 3.0 275
2023-11-17 15:45 2.20 7.11 7.19 16.93 0.6 285
2023-11-17 14:45 2.26 8.83 7.48 18.14 2.2 243
2023-11-17 13:45 2.20 8.53 7.37 19.29 9.4 260
2023-11-17 12:45 1.97 9.85 7.40 20.14 11.5 244
2023-11-17 11:45 2.10 9.14 7.72 20.57 3.4 24
2023-11-17 10:45 2.10 9.48 7.79 20.64 1.6 23
2023-11-17 09:45 2.26 10.24 7.88 20.24 0.9 276
2023-11-17 08:45 2.17 11.13 7.83 19.62 2.1 153
2023-11-17 07:45 2.20 9.85 7.75 18.90 2.6 147
2023-11-17 06:45 2.00 10.24 7.76 18.27 1.3 183
2023-11-17 05:45 1.90 9.85 7.65 17.81 3.0 92
2023-11-17 04:45 2.07 9.48 7.72 17.68 2.1 166
2023-11-17 03:45 2.17 11.13 7.80 17.78 2.4 147
2023-11-17 02:45 2.17 11.64 8.01 18.04 2.8 159
2023-11-17 01:45 2.23 11.13 8.18 18.18 2.4 92
2023-11-17 00:45 2.43 10.67 8.17 18.21 1.4 191
2023-11-16 23:45 2.40 10.67 8.20 17.88 2.3 169
2023-11-16 22:45 2.66 10.24 7.78 17.29 0.5 52
2023-11-16 21:45 2.56 12.19 7.37 16.44 0.0
2023-11-16 20:45 2.66 12.19 7.80 15.55 0.2 158
2023-11-16 19:45 2.43 11.13 7.58 14.73 0.9 41
2023-11-16 18:45 2.40 10.67 7.61 14.30 3.9 30
2023-11-16 17:45 2.40 11.13 7.36 14.24 5.0 342
2023-11-16 16:45 2.69 11.13 7.98 14.70 1.1 18
2023-11-16 15:45 2.89 11.64 7.98 15.68 1.4 351
2023-11-16 14:45 3.08 11.64 8.56 16.96 2.5 306
2023-11-16 13:45 3.31 12.80 8.93 18.41 1.8 310
2023-11-16 12:45 3.58 12.19 8.89 19.65 2.0 11
2023-11-16 11:45 3.44 11.64 9.48 20.57 4.4 17
2023-11-16 10:45 3.22 12.80 9.13 21.00 3.4 22
2023-11-16 09:45 3.41 12.19 8.93 20.83 3.9 356
2023-11-16 08:45 3.31 12.19 8.38 20.28 1.3 90
2023-11-16 07:45 3.22 12.19 8.29 19.49 4.6 105
2023-11-16 06:45 3.25 12.19 8.60 18.64 4.5 104
2023-11-16 05:45 3.12 14.22 7.94 17.88 5.3 95
2023-11-16 04:45 3.05 13.47 8.04 17.45 3.9 86
2023-11-16 03:45 3.05 13.47 8.14 17.42 2.9 106
2023-11-16 02:45 3.08 13.47 7.63 17.59 0.9 132
2023-11-16 01:45 3.05 14.22 7.73 17.88 0.8 142
2023-11-16 00:45 3.12 14.22 8.02 18.18 1.7 228
2023-11-15 23:45 2.99 13.47 7.75 18.24 2.9 35
2023-11-15 22:45 3.38 13.47 8.37 17.91 2.1 127
2023-11-15 21:45 3.18 14.22 8.36 17.26 5.8 146
2023-11-15 20:45 3.44 14.22 8.30 16.37 6.8 177
2023-11-15 19:45 3.02 13.47 8.27 15.35 11.5 194
2023-11-15 18:45 2.79 13.47 7.69 14.47 12.6 178
2023-11-15 17:45 2.62 13.47 9.20 14.01 14.1 198
2023-11-15 16:45 2.53 13.47 8.91 13.98 7.9 231
2023-11-15 15:45 2.40 14.22 9.18 14.63 2.8 278
2023-11-15 14:45 2.59 13.47 9.62 15.75 8.6 248
2023-11-15 13:45 2.40 12.80 10.05 17.16 5.6 92
2023-11-15 12:45 2.43 12.19 9.49 18.67 2.9 99
2023-11-15 11:45 2.46 11.64 9.87 19.98 7.0 119
2023-11-15 10:45 2.49 12.80 9.77 20.77 5.0 11
2023-11-15 09:45 2.26 11.13 9.90 21.06 0.8 214
2023-11-15 08:45 2.23 11.64 10.54 20.73 1.1 146
2023-11-15 07:45 2.23 11.13 10.88 19.95 3.3 162
2023-11-15 06:45 2.17 12.80 10.83 19.00 1.3 180
2023-11-15 05:45 2.20 12.19 10.57 18.04 2.2 123
2023-11-15 04:45 2.17 13.47 10.25 17.32 4.5 135
2023-11-15 03:45 2.00 11.13 9.93 17.03 4.6 124
2023-11-15 02:45 2.20 11.64 10.04 17.13 0.8 115
2023-11-15 01:45 2.10 12.80 10.17 17.42 0.7 106
2023-11-15 00:45 2.13 12.19 9.84 17.85 1.9 175
2023-11-14 23:45 2.33 11.64 9.79 18.21 1.0 50
2023-11-14 22:45 2.53 12.80 9.98 18.21 1.0 156
2023-11-14 21:45 2.69 13.47 9.31 17.81 2.7 147
2023-11-14 20:45 2.82 12.19 9.22 17.06 1.3 153
2023-11-14 19:45 2.62 11.13 8.69 16.04 0.0 33
2023-11-14 18:45 2.69 12.80 9.01 14.99 0.4 130
2023-11-14 17:45 2.53 12.80 9.18 14.17 2.8 28
2023-11-14 16:45 2.33 10.67 8.88 13.81 3.2 19
2023-11-14 15:45 2.33 13.47 9.06 14.01 3.7 31
2023-11-14 14:45 2.66 11.64 9.23 14.80 2.1 18
2023-11-14 13:45 2.40 11.64 8.82 16.11 2.1 16
2023-11-14 12:45 2.69 10.67 9.61 17.68 2.9 344
2023-11-14 11:45 3.15 10.24 9.38 19.16 2.1 358
2023-11-14 10:45 3.08 12.80 9.53 20.34 0.5 356
2023-11-14 09:45 3.22 11.13 9.45 20.93 0.6 21
2023-11-14 08:45 3.38 11.64 9.68 20.90 0.5 36
2023-11-14 07:45 3.05 12.80 9.77 20.34 0.7 89
2023-11-14 06:45 3.08 12.80 9.85 19.42 2.5 144
2023-11-14 05:45 2.95 12.80 9.60 18.37 1.5 86
2023-11-14 04:45 3.12 11.64 9.78 17.42 0.8 112
2023-11-14 03:45 3.22 10.67 9.25 16.90 4.2 30
2023-11-14 02:45 3.18 10.67 8.97 16.77 3.9 142
2023-11-14 01:45 3.38 12.19 9.31 16.96 0.8 129
2023-11-14 00:45 3.54 12.19 9.52 17.49 0.6 49
2023-11-13 23:45 3.58 12.19 9.64 18.08 0.7 256
2023-11-13 22:45 3.35 13.47 10.04 18.34 0.2 109
2023-11-13 21:45 3.25 12.80 9.93 18.37 0.3 86
2023-11-13 20:45 3.35 12.19 9.73 17.85 1.0 117
2023-11-13 19:45 3.25 13.47 9.12 16.99 2.2 27
2023-11-13 18:45 2.59 12.19 8.83 15.94 1.8 32
2023-11-13 17:45 2.76 11.13 8.88 14.83 1.7 335
2023-11-13 16:45 2.53 11.64 8.87 14.11 0.5 12
2023-11-13 15:45 2.82 10.67 8.56 13.91 2.0 30
2023-11-13 14:45 2.85 11.64 9.12 14.27 2.3 359
2023-11-13 13:45 2.85 11.64 9.37 15.35 1.3 20
2023-11-13 12:45 2.92 11.64 9.12 16.73 1.8 1
2023-11-13 11:45 2.85 11.64 9.13 18.31 1.0 29
2023-11-13 10:45 2.76 13.47 9.61 19.69 0.4 14
2023-11-13 09:45 2.79 12.80 9.49 20.57 1.1 0
2023-11-13 08:45 2.56 12.80 9.47 20.83 0.2 44
2023-11-13 07:45 2.40 12.19 9.59 20.47 2.1 38
2023-11-13 06:45 2.43 12.80 8.98 19.72 7.2 109
2023-11-13 05:45 2.26 12.19 8.81 18.67 4.7 146
2023-11-13 04:45 2.26 11.13 8.38 17.62 1.4 84
2023-11-13 03:45 2.10 11.13 8.01 16.80 2.9 149
2023-11-13 02:45 2.00 10.24 7.97 16.50 1.3 81
2023-11-13 01:45 2.07 10.67 8.50 16.54 0.4 135
2023-11-13 00:45 2.17 11.13 8.72 17.06 2.4 118
2023-11-12 23:45 2.59 11.64 8.81 17.72 3.1 96
2023-11-12 22:45 2.66 12.19 8.77 18.27 4.0 169
2023-11-12 21:45 2.59 12.19 8.59 18.60 1.6 101
2023-11-12 20:45 2.59 12.19 8.97 18.44 1.6 100
2023-11-12 19:45 2.62 12.80 8.69 17.81 2.7 41
2023-11-12 18:45 2.53 12.80 8.16 16.86 0.4 29
2023-11-12 17:45 2.40 12.80 8.09 15.72 0.2 58
2023-11-12 16:45 2.23 12.19 7.77 14.76 2.9 8
2023-11-12 15:45 2.33 12.80 7.68 14.21 1.7 5
2023-11-12 14:45 2.26 12.80 7.74 14.21 2.2 1
2023-11-12 13:45 2.33 12.80 7.88 14.90 1.1 333
2023-11-12 12:45 2.36 12.80 8.06 16.08 0.5 359
2023-11-12 11:45 2.33 11.13 8.05 17.49 0.3 334
2023-11-12 10:45 2.36 11.64 8.63 18.93 0.8 319
2023-11-12 09:45 2.59 11.13 8.27 20.01 0.7 29
2023-11-12 08:45 2.40 11.64 8.04 20.57 2.5 278
2023-11-12 07:45 1.97 12.80 7.17 20.54 1.2 64
2023-11-12 06:45 2.23 13.47 7.32 19.91 1.2 66
2023-11-12 05:45 2.33 12.80 7.11 18.93 2.0 74
2023-11-12 04:45 2.30 12.19 7.13 17.78 2.9 116
2023-11-12 03:45 2.20 12.80 7.10 16.90 1.5 181
2023-11-12 02:45 2.10 14.22 7.04 16.34 0.1 27
2023-11-12 01:45 2.20 11.13 7.43 16.24 2.6 81
2023-11-12 00:45 2.53 11.13 7.74 16.60 0.8 112
2023-11-11 23:45 2.43 13.47 7.94 17.26 1.5 99
2023-11-11 22:45 3.05 12.19 8.59 17.98 1.2 43
2023-11-11 21:45 2.95 12.80 8.88 18.57 0.5 39
2023-11-11 20:45 2.85 12.19 8.93 18.77 2.9 157
2023-11-11 19:45 2.62 12.80 8.17 18.47 0.1 73
2023-11-11 18:45 2.69 12.19 8.26 17.72 1.1 135
2023-11-11 17:45 2.59 12.80 8.32 16.63 0.5 358
2023-11-11 16:45 2.46 13.47 7.65 15.62 0.9 9
2023-11-11 15:45 2.40 14.22 7.34 14.86 3.0 6
2023-11-11 14:45 2.17 12.80 7.07 14.53 0.2 2
2023-11-11 13:45 2.00 13.47 6.77 14.83 1.1 21
2023-11-11 12:45 1.97 13.47 6.68 15.72 0.4 354
2023-11-11 11:45 2.10 13.47 6.61 16.96 1.5 304
2023-11-11 10:45 2.13 6.40 6.53 18.34 1.0 307
2023-11-11 09:45 2.36 6.56 6.52 19.49 0.1 264
2023-11-11 08:45 2.59 6.40 6.20 20.18 0.5 346
2023-11-11 07:45 2.59 6.74 6.20 20.31 0.0 34
2023-11-11 06:45 2.53 6.74 6.21 19.91 0.1 104
2023-11-11 05:45 2.62 7.11 6.39 19.03 0.1 144
2023-11-11 04:45 2.56 6.74 6.19 17.91 0.3 80
2023-11-11 03:45 2.36 9.48 6.19 16.93 0.5 143
2023-11-11 02:45 2.30 6.92 6.25 16.17 0.3 117
2023-11-11 01:45 2.03 7.11 6.55 15.88 0.8 125
2023-11-11 00:45 2.17 9.48 6.57 16.08 0.0 72
2023-11-10 23:45 2.23 9.14 6.71 16.70 0.8 80
2023-11-10 22:45 2.26 7.11 6.73 17.45 1.0 90
2023-11-10 21:45 2.26 9.85 6.91 18.27 1.3 37
2023-11-10 20:45 2.40 10.24 6.82 18.73 0.0 6
2023-11-10 19:45 2.46 10.24 6.85 18.73 0.0 241
2023-11-10 18:45 2.30 7.31 6.64 18.34 0.1 108
2023-11-10 17:45 2.59 10.24 6.84 17.52 5.0 23
2023-11-10 16:45 2.53 9.85 6.54 16.50 2.8 20
2023-11-10 15:45 2.76 10.24 6.56 15.65 2.0 1
2023-11-10 14:45 2.69 10.24 6.45 15.12 0.5 326
2023-11-10 13:45 2.89 7.31 6.53 15.09 0.8 298
2023-11-10 12:45 2.89 10.67 6.79 15.62 0.5 330
2023-11-10 11:45 3.12 10.24 6.83 16.57 1.0 359
2023-11-10 10:45 2.79 10.67 6.36 17.78 0.8 187
2023-11-10 09:45 2.95 9.85 6.39 18.90 0.0 272
2023-11-10 08:45 3.02 10.24 6.60 19.72 0.8 36
2023-11-10 07:45 3.02 10.67 6.74 19.98 4.5 158
2023-11-10 06:45 2.99 10.67 6.55 19.78 4.7 150
2023-11-10 05:45 2.59 10.67 6.37 19.09 0.2 110
2023-11-10 04:45 2.49 10.67 6.52 18.04 1.0 143
2023-11-10 03:45 2.59 10.24 6.22 16.99 1.4 131
2023-11-10 02:45 2.40 10.67 5.79 16.17 1.7 108
2023-11-10 01:45 2.53 11.13 6.15 15.72 2.3 98
2023-11-10 00:45 2.23 11.13 6.24 15.75 5.3 109
2023-11-09 23:45 2.53 11.13 6.59 16.21 3.9 109
2023-11-09 22:45 2.69 11.13 6.57 16.93 4.0 139
2023-11-09 21:45 2.85 11.13 6.71 17.85 2.0 145
2023-11-09 20:45 2.85 10.24 6.79 18.50 2.0 28
2023-11-09 19:45 2.95 11.13 6.65 18.80 1.7 45
2023-11-09 18:45 3.15 11.13 6.41 18.70 2.8 45
2023-11-09 17:45 2.85 11.13 6.48 18.14 3.1 25
2023-11-09 16:45 3.02 10.67 6.60 17.32 0.3 26
2023-11-09 15:45 3.12 11.64 6.82 16.40 0.2 97
2023-11-09 14:45 3.44 10.24 7.16 15.75 0.2 349
2023-11-09 13:45 3.54 11.13 6.86 15.55 0.2 185
2023-11-09 12:45 4.10 10.67 7.37 15.72 0.7 301
2023-11-09 11:45 3.67 11.64 7.25 16.44 1.0 222
2023-11-09 10:45 3.77 11.13 7.87 17.39 0.6 287
2023-11-09 09:45 3.84 11.13 7.63 18.41 1.8 25
2023-11-09 08:45 4.10 10.67 7.93 19.23 2.5 141
2023-11-09 07:45 3.87 11.64 7.91 19.65 2.7 66
2023-11-09 06:45 4.00 10.24 8.28 19.59 2.1 126
2023-11-09 05:45 3.97 11.13 7.88 19.06 1.5 148
2023-11-09 04:45 3.84 10.67 7.66 18.14 0.7 75
2023-11-09 03:45 3.67 11.64 7.24 17.13 1.1 237
2023-11-09 02:45 3.61 10.67 7.17 16.24 8.3 72
2023-11-09 01:45 3.54 10.67 6.78 15.65 0.7 70
2023-11-09 00:45 3.54 10.67 6.80 15.52 1.5 119
2023-11-08 23:45 3.61 8.53 6.64 15.78 1.5 128
2023-11-08 22:45 3.51 11.64 6.39 16.44 1.5 346
2023-11-08 21:45 3.87 12.19 6.21 17.29 2.7 92
2023-11-08 20:45 4.36 11.64 6.31 18.08 3.4 112
2023-11-08 19:45 4.33 11.13 6.34 18.67 5.3 57
2023-11-08 18:45 4.76 11.64 6.64 18.80 6.0 24
2023-11-08 17:45 4.86 10.24 6.32 18.54 4.8 1
2023-11-08 16:45 4.79 11.13 6.81 17.91 3.5 17
2023-11-08 15:45 4.92 10.24 7.11 17.19 1.7 29
2023-11-08 14:45 4.95 12.19 7.19 16.50 4.0 333
2023-11-08 13:45 4.76 11.64 7.22 16.14 4.2 309
2023-11-08 12:45 5.31 11.64 7.29 16.11 5.0 295
2023-11-08 11:45 5.05 12.19 7.31 16.54 3.0 299
2023-11-08 10:45 5.09 12.19 7.29 17.22 3.1 310
2023-11-08 09:45 4.99 12.19 7.36 18.04 1.3 308
2023-11-08 08:45 5.05 13.47 7.52 18.83 5.7 100
2023-11-08 07:45 4.63 8.00 7.17 19.26 5.9 92
2023-11-08 06:45 4.69 7.31 6.94 19.36 5.2 105
2023-11-08 05:45 4.49 7.11 6.77 18.96 5.0 107
2023-11-08 04:45 4.99 8.00 7.01 18.27 5.9 103
2023-11-08 03:45 5.02 8.00 6.69 17.36 5.5 102
2023-11-08 02:45 5.54 8.00 6.66 16.40 5.2 101
2023-11-08 01:45 5.58 7.11 6.65 15.65 2.8 108
2023-11-08 00:45 5.35 7.53 6.23 15.32 2.2 117
2023-11-07 23:45 5.02 6.92 6.09 15.42 2.5 136
2023-11-07 22:45 4.76 6.92 6.18 15.91 0.5 138
2023-11-07 21:45 4.36 6.56 6.21 16.67 0.8 128
2023-11-07 20:45 4.13 7.31 6.08 17.49 0.3 133
2023-11-07 19:45 4.07 13.47 6.29 18.21 3.6 352
2023-11-07 18:45 3.74 6.92 6.13 18.64 2.7 341
2023-11-07 17:45 3.61 6.56 6.15 18.70 4.0 280
2023-11-07 16:45 3.54 6.56 6.16 18.41 5.9 282
2023-11-07 15:45 3.25 6.56 6.03 17.85 7.3 270
2023-11-07 14:45 3.35 6.10 5.95 17.26 4.1 238
2023-11-07 13:45 3.28 6.24 5.79 16.83 6.3 238
2023-11-07 12:45 3.12 6.10 5.84 16.67 7.3 235
2023-11-07 11:45 3.58 6.24 6.04 16.83 6.2 234
2023-11-07 10:45 3.48 6.40 5.83 17.32 6.8 233
2023-11-07 09:45 3.35 6.10 5.76 17.91 2.5 248
2023-11-07 08:45 3.41 6.10 5.83 18.54 5.1 146
2023-11-07 07:45 3.15 6.10 5.94 18.96 4.9 128
2023-11-07 06:45 2.92 11.13 5.74 19.13 3.1 140
2023-11-07 05:45 2.85 10.67 5.87 18.93 2.2 178
2023-11-07 04:45 3.18 10.67 5.97 18.37 0.6 90
2023-11-07 03:45 3.18 10.24 6.12 17.59 0.3 182
2023-11-07 02:45 3.02 10.67 6.02 16.70 1.0 220
2023-11-07 01:45 3.02 11.13 6.20 15.94 1.3 156
2023-11-07 00:45 2.92 10.67 6.34 15.42 2.7 109
2023-11-06 23:45 2.76 10.67 6.77 15.35 2.4 137
2023-11-06 22:45 2.53 11.13 6.89 15.58 1.0 358
2023-11-06 21:45 2.36 10.67 6.87 16.14 0.4 62
2023-11-06 20:45 2.69 11.13 6.99 16.90 0.4 66
2023-11-06 19:45 2.89 10.67 7.24 17.62 0.0
2023-11-06 18:45 2.85 11.13 6.91 18.24 1.9 40
2023-11-06 17:45 3.18 11.13 7.18 18.57 0.3 24
2023-11-06 16:45 3.28 11.64 7.15 18.57 0.4 1
2023-11-06 15:45 3.35 11.64 7.08 18.37 0.3 18
2023-11-06 14:45 3.38 10.24 6.65 17.98 0.0
2023-11-06 13:45 3.54 10.67 6.80 17.59 0.4 42
2023-11-06 12:45 3.48 10.67 6.72 17.32 1.0 321
2023-11-06 11:45 3.54 11.64 6.90 17.32 2.0 342
2023-11-06 10:45 3.58 11.64 7.11 17.55 0.3 38
2023-11-06 09:45 3.58 11.64 7.23 17.91 2.3 41
2023-11-06 08:45 3.48 11.64 7.10 18.31 3.1 335
2023-11-06 07:45 3.15 11.13 7.33 18.67 0.7 341
2023-11-06 06:45 3.44 11.64 7.44 18.90 3.1 39
2023-11-06 05:45 3.87 11.13 7.50 18.86 2.2 30
2023-11-06 04:45 3.54 11.13 7.45 18.47 1.6 16
2023-11-06 03:45 2.76 11.64 6.83 17.88 3.1 10
2023-11-06 02:45 2.72 11.64 6.91 17.13 0.4 129
2023-11-06 01:45 2.40 11.64 6.64 16.34 1.4 49
2023-11-06 00:45 2.03 11.64 6.27 15.72 2.2 358
2023-11-05 23:45 1.80 9.85 6.19 15.39 0.5 133
2023-11-05 22:45 1.80 10.24 6.04 15.39 0.9 152
2023-11-05 21:45 1.84 6.40 5.60 15.72 1.3 64
2023-11-05 20:45 1.90 9.48 5.97 16.21 0.4 173
2023-11-05 19:45 1.90 9.48 5.76 16.96 1.1 166
2023-11-05 18:45 1.97 9.14 5.91 17.68 0.6 21
2023-11-05 17:45 2.10 9.14 6.39 18.27 3.7 22
2023-11-05 16:45 2.03 9.85 6.63 18.60 4.6 360
2023-11-05 15:45 1.97 10.24 6.60 18.70 4.7 359
2023-11-05 14:45 1.94 9.85 6.48 18.54 2.5 5
2023-11-05 13:45 1.87 8.83 6.85 18.31 0.7 43
2023-11-05 12:45 1.87 9.48 6.87 18.08 3.6 345
2023-11-05 11:45 1.71 9.14 6.83 17.95 0.6 353
2023-11-05 10:45 1.64 9.14 6.46 17.95 2.2 353
2023-11-05 09:45 1.57 9.48 6.55 18.08 1.6 12
2023-11-05 08:45 1.61 9.85 6.24 18.31 1.7 26
2023-11-05 07:45 1.90 8.83 6.19 18.50 1.4 29
2023-11-05 06:45 2.07 9.14 6.43 18.70 0.7 142
2023-11-05 05:45 1.87 9.85 6.48 18.73 0.6 138
2023-11-05 04:45 1.67 10.24 6.45 18.50 1.8 127
2023-11-05 03:45 1.64 10.24 6.90 18.11 2.1 6
2023-11-05 02:45 1.67 9.85 7.24 17.52 2.6 61
2023-11-05 01:45 1.74 10.67 7.28 16.83 3.1 145
2023-11-05 00:45 1.67 10.67 7.45 16.14 2.2 45
2023-11-04 23:45 1.48 9.85 6.92 15.62 4.8 356
2023-11-04 22:45 1.51 11.13 7.17 15.39 0.3 27
2023-11-04 21:45 1.48 9.85 6.69 15.39 0.1 97
2023-11-04 20:45 1.54 10.67 6.49 15.68 0.4 143
2023-11-04 19:45 1.54 10.24 6.74 16.24 0.6 51
2023-11-04 18:45 1.51 10.24 7.08 16.93 1.2 25
2023-11-04 17:45 1.41 10.67 7.42 17.59 0.9 15
2023-11-04 16:45 1.71 10.67 7.89 18.21 3.9 15
2023-11-04 15:45 1.80 9.14 7.96 18.64 6.4 347
2023-11-04 14:45 1.74 9.85 8.42 18.83 4.0 358
2023-11-04 13:45 1.80 10.67 8.39 18.90 4.6 345
2023-11-04 12:45 1.61 11.13 8.42 18.80 3.4 343
2023-11-04 11:45 1.54 11.13 8.11 18.67 1.7 355
2023-11-04 10:45 1.41 11.13 7.51 18.47 4.6 334
2023-11-04 09:45 1.38 9.48 7.05 18.41 1.1 10
2023-11-04 08:45 1.48 9.14 6.76 18.34 0.3 244
2023-11-04 07:45 1.41 11.64 6.40 18.34 0.1 117
2023-11-04 06:45 1.48 11.13 6.21 18.41 0.1 156
2023-11-04 05:45 1.35 9.48 6.70 18.44 0.1 18
2023-11-04 04:45 1.31 11.64 7.16 18.37 1.7 95
2023-11-04 03:45 1.44 11.64 8.14 18.14 0.2 58
2023-11-04 02:45 1.18 9.85 7.45 17.78 0.3 123
2023-11-04 01:45 1.28 12.19 7.74 17.26 0.1 151
2023-11-04 00:45 1.31 12.19 8.03 16.63 0.6 76
2023-11-03 23:45 1.31 12.19 7.78 16.04 1.4 93
2023-11-03 22:45 1.18 12.19 7.57 15.52 0.4 98
2023-11-03 21:45 1.08 12.80 6.90 15.26 0.2 140
2023-11-03 20:45 1.08 12.80 6.48 15.26 0.6 169
2023-11-03 19:45 1.12 10.24 6.01 15.52 0.0 336
2023-11-03 18:45 1.15 10.67 6.44 16.01 0.2 179
2023-11-03 17:45 1.08 12.80 6.40 16.70 0.4 5
2023-11-03 16:45 1.05 13.47 7.98 17.45 2.1 12
2023-11-03 15:45 0.98 12.80 8.32 18.18 3.6 2
2023-11-03 14:45 1.05 13.47 7.87 18.80 3.3 7
2023-11-03 13:45 1.02 13.47 7.97 19.19 5.6 337
2023-11-03 12:45 1.05 12.19 7.73 19.32 2.2 339
2023-11-03 11:45 0.98 9.48 7.74 19.26 1.6 3
2023-11-03 10:45 0.95 9.48 7.42 19.06 0.3 357
2023-11-03 09:45 0.98 9.48 7.13 18.80 0.0 301
2023-11-03 08:45 1.02 13.47 7.47 18.50 0.1 29
2023-11-03 07:45 0.92 12.80 7.11 18.27 0.2 55
2023-11-03 06:45 0.95 9.48 7.46 18.14 0.1 67
2023-11-03 05:45 0.89 9.14 7.51 18.08 0.3 94
2023-11-03 04:45 0.89 9.85 7.36 18.08 0.0 109
2023-11-03 03:45 0.95 9.14 7.38 18.04 0.1 30
2023-11-03 02:45 0.98 12.19 7.73 17.91 0.3 45
2023-11-03 01:45 0.92 9.48 6.75 17.62 1.3 130
2023-11-03 00:45 1.05 9.48 7.35 17.16 2.3 101
2023-11-02 23:45 1.15 9.48 7.28 16.54 0.6 23
2023-11-02 22:45 1.08 8.26 7.22 15.91 0.1 155
2023-11-02 21:45 1.08 9.85 7.35 15.39 0.1 90
2023-11-02 20:45 1.15 13.47 7.26 15.03 0.3 134
2023-11-02 19:45 1.18 9.85 7.03 14.93 2.3 25
2023-11-02 18:45 1.28 9.48 6.87 15.12 0.4 131
2023-11-02 17:45 1.21 9.85 6.97 15.58 1.0 156
2023-11-02 16:45 1.25 9.85 6.78 16.44 1.0 16
2023-11-02 15:45 1.21 9.48 7.15 17.39 2.8 13
2023-11-02 14:45 1.25 8.26 7.85 18.31 4.7 13
2023-11-02 13:45 1.18 9.85 8.09 19.13 2.3 6
2023-11-02 12:45 1.18 8.00 8.07 19.65 0.3 5
2023-11-02 11:45 1.21 9.85 8.06 19.85 1.8 327
2023-11-02 10:45 1.25 9.85 8.18 19.75 0.3 24
2023-11-02 09:45 1.08 8.00 7.43 19.42 1.1 17
2023-11-02 08:45 1.08 10.67 6.49 18.96 4.0 27
2023-11-02 07:45 1.08 10.67 6.72 18.47 1.7 155
2023-11-02 06:45 0.98 10.24 6.67 18.01 1.8 157
2023-11-02 05:45 0.98 14.22 6.97 17.78 2.2 158
2023-11-02 04:45 0.95 10.67 7.11 17.75 0.4 160
2023-11-02 03:45 0.95 10.67 7.57 17.85 1.1 134
2023-11-02 02:45 1.05 9.48 8.01 17.95 3.9 119
2023-11-02 01:45 1.02 10.67 7.76 17.95 1.4 142
2023-11-02 00:45 1.12 10.24 8.42 17.75 1.1 91
2023-11-01 23:45 1.28 10.67 8.46 17.29 0.9 103
2023-11-01 22:45 1.35 11.64 8.30 16.63 1.9 105
2023-11-01 21:45 1.31 11.13 7.99 15.88 1.8 165
2023-11-01 20:45 1.25 10.67 8.20 15.16 1.3 171
2023-11-01 19:45 1.15 10.24 7.82 14.63 0.3 184
2023-11-01 18:45 1.25 14.22 7.67 14.50 0.2 58
2023-11-01 17:45 1.18 10.24 7.65 14.70 1.2 24
2023-11-01 16:45 1.21 9.85 7.28 15.32 10.2 11
2023-11-01 15:45 1.25 11.13 7.30 16.34 7.8 17
2023-11-01 14:45 1.21 10.67 7.47 17.49 5.6 1
2023-11-01 13:45 1.18 11.64 7.63 18.70 0.1 348
2023-11-01 12:45 1.21 11.13 7.70 19.65 0.9 3
2023-11-01 11:45 1.05 15.06 7.85 20.28 1.5 7
2023-11-01 10:45 1.15 11.64 7.93 20.41 1.9 8
2023-11-01 09:45 1.12 12.19 7.96 20.11 2.2 360
2023-11-01 08:45 1.15 11.64 8.33 19.52 2.0 183
2023-11-01 07:45 1.05 11.13 8.30 18.77 1.6 349
2023-11-01 06:45 1.08 15.06 8.12 18.04 1.6 72
2023-11-01 05:45 1.18 11.64 7.45 17.55 0.9 89
2023-11-01 04:45 1.18 11.64 7.96 17.36 0.8 152
2023-11-01 03:45 1.18 11.64 8.05 17.42 0.7 51
2023-11-01 02:45 1.21 11.13 8.37 17.72 1.2 41
2023-11-01 01:45 1.18 11.64 8.61 17.95 3.3 118
2023-11-01 00:45 1.25 11.13 8.51 18.08 6.4 105
2023-10-31 23:45 1.28 11.64 8.28 17.98 4.0 159
2023-10-31 22:45 1.25 11.13 7.78 17.52 2.2 115
2023-10-31 21:45 1.18 11.13 7.27 16.73 3.7 21
2023-10-31 20:45 1.18 12.19 7.04 15.81 0.7 200
2023-10-31 19:45 1.12 11.64 6.17 14.96 1.7 157
2023-10-31 18:45 1.15 12.19 6.04 14.34 0.4 182
2023-10-31 17:45 1.18 11.64 5.93 14.11 3.2 15